createdAt,value
2023-05-05T00:00:28.870Z,6.70
2023-05-05T00:02:57.000Z,6.78
2023-05-05T00:05:25.415Z,7.00
2023-05-05T00:07:53.143Z,6.45
2023-05-05T00:10:20.941Z,6.65
2023-05-05T00:12:48.941Z,8.50
2023-05-05T00:15:19.121Z,8.35
2023-05-05T00:17:46.794Z,8.50
2023-05-05T00:20:14.942Z,11.05
2023-05-05T00:22:42.663Z,6.88
2023-05-05T00:25:10.782Z,6.68
2023-05-05T00:27:40.262Z,10.20
2023-05-05T00:30:09.598Z,8.47
2023-05-05T00:32:38.866Z,8.90
2023-05-05T00:35:07.238Z,7.40
2023-05-05T00:37:35.000Z,7.32
2023-05-05T00:40:03.113Z,8.95
2023-05-05T00:42:39.407Z,8.88
2023-05-05T00:45:08.645Z,9.07
2023-05-05T00:47:38.510Z,9.57
2023-05-05T00:50:09.251Z,10.77
2023-05-05T00:52:37.864Z,10.73
2023-05-05T00:55:07.096Z,13.25
2023-05-05T00:57:36.646Z,14.37
2023-05-05T01:00:06.017Z,17.73
2023-05-05T01:02:34.248Z,14.50
2023-05-05T01:05:03.693Z,12.63
2023-05-05T01:07:37.695Z,11.53
2023-05-05T01:10:20.198Z,16.53
2023-05-05T01:12:54.960Z,16.23
2023-05-05T01:15:32.943Z,9.77
2023-05-05T01:18:08.036Z,11.02
2023-05-05T01:20:49.071Z,13.00
2023-05-05T01:23:28.350Z,13.07
2023-05-05T01:26:11.920Z,14.40
2023-05-05T01:29:01.647Z,12.27
2023-05-05T01:31:51.684Z,12.27
2023-05-05T01:34:25.128Z,12.77
2023-05-05T01:36:59.360Z,10.10
2023-05-05T01:39:34.480Z,10.53
2023-05-05T01:42:07.486Z,12.47
2023-05-05T01:44:37.699Z,12.80
2023-05-05T01:47:07.573Z,12.90
2023-05-05T01:49:37.656Z,11.90
2023-05-05T01:52:07.039Z,12.73
2023-05-05T01:54:36.184Z,11.70
2023-05-05T01:57:05.884Z,12.17
2023-05-05T01:59:35.053Z,11.50
2023-05-05T02:02:04.312Z,12.70
2023-05-05T02:04:34.554Z,10.97
2023-05-05T02:07:04.350Z,12.20
2023-05-05T02:09:33.553Z,11.73
2023-05-05T02:12:02.672Z,12.33
2023-05-05T02:14:31.424Z,10.47
2023-05-05T02:16:59.530Z,11.13
2023-05-05T02:19:30.430Z,11.15
2023-05-05T02:21:59.584Z,9.97
2023-05-05T02:24:27.466Z,10.33
2023-05-05T02:26:58.070Z,9.18
2023-05-05T02:29:32.333Z,8.23
2023-05-05T02:32:04.610Z,7.00
2023-05-05T02:34:36.731Z,9.90
2023-05-05T02:37:11.150Z,9.23
2023-05-05T02:39:44.118Z,10.27
2023-05-05T02:42:16.385Z,8.17
2023-05-05T02:44:46.515Z,10.03
2023-05-05T02:47:14.478Z,10.00
2023-05-05T02:49:43.547Z,8.73
2023-05-05T02:52:12.692Z,8.50
2023-05-05T02:54:40.412Z,8.20
2023-05-05T02:57:10.769Z,9.15
2023-05-05T02:59:47.447Z,5.93
2023-05-05T03:02:20.653Z,9.23
2023-05-05T03:04:55.224Z,9.67
2023-05-05T03:07:28.723Z,7.57
2023-05-05T03:10:03.771Z,6.93
2023-05-05T03:12:38.444Z,7.70
2023-05-05T03:15:09.988Z,8.27
2023-05-05T03:17:38.750Z,8.37
2023-05-05T03:20:08.844Z,7.17
2023-05-05T03:22:38.542Z,7.90
2023-05-05T03:25:07.308Z,7.23
2023-05-05T03:27:34.973Z,8.97
2023-05-05T03:30:02.894Z,6.80
2023-05-05T03:32:30.995Z,7.15
2023-05-05T03:34:58.753Z,6.18
2023-05-05T03:37:26.399Z,5.67
2023-05-05T03:39:55.435Z,7.13
2023-05-05T03:42:23.092Z,6.50
2023-05-05T03:44:53.443Z,5.47
2023-05-05T03:47:21.151Z,7.00
2023-05-05T03:49:48.949Z,7.30
2023-05-05T03:52:16.666Z,5.32
2023-05-05T03:54:46.191Z,6.00
2023-05-05T03:57:15.263Z,4.90
2023-05-05T03:59:42.974Z,7.30
2023-05-05T04:02:10.711Z,8.90
2023-05-05T04:04:38.475Z,6.60
2023-05-05T04:07:06.167Z,6.53
2023-05-05T04:09:33.861Z,10.40
2023-05-05T04:12:01.611Z,8.57
2023-05-05T04:14:30.731Z,8.18
2023-05-05T04:16:58.394Z,7.37
2023-05-05T04:19:26.141Z,6.00
2023-05-05T04:21:53.831Z,8.80
2023-05-05T04:24:24.722Z,10.73
2023-05-05T04:26:52.412Z,9.03
2023-05-05T04:29:20.110Z,8.23
2023-05-05T04:31:50.028Z,7.43
2023-05-05T04:34:17.817Z,7.30
2023-05-05T04:36:45.543Z,5.80
2023-05-05T04:39:13.217Z,7.30
2023-05-05T04:41:41.009Z,6.07
2023-05-05T04:44:08.770Z,7.15
2023-05-05T04:46:36.491Z,8.30
2023-05-05T04:49:05.915Z,5.80
2023-05-05T04:51:33.617Z,5.60
2023-05-05T04:54:01.318Z,9.90
2023-05-05T04:56:31.721Z,7.37
2023-05-05T04:58:59.666Z,7.87
2023-05-05T05:01:27.407Z,7.53
2023-05-05T05:03:55.096Z,6.55
2023-05-05T05:06:24.203Z,8.55
2023-05-05T05:08:52.034Z,11.70
2023-05-05T05:11:19.772Z,9.82
2023-05-05T05:13:47.416Z,7.30
2023-05-05T05:16:15.228Z,13.10
2023-05-05T05:18:43.099Z,10.05
2023-05-05T05:21:10.772Z,11.45
2023-05-05T05:23:39.876Z,13.13
2023-05-05T05:26:07.552Z,9.50
2023-05-05T05:28:35.282Z,8.60
2023-05-05T05:31:03.016Z,10.50
2023-05-05T05:33:30.705Z,12.57
2023-05-05T05:35:58.343Z,12.50
2023-05-05T05:38:26.089Z,12.57
2023-05-05T05:40:55.455Z,11.90
2023-05-05T05:43:23.098Z,16.20
2023-05-05T05:45:51.988Z,16.27
2023-05-05T05:48:20.043Z,14.67
2023-05-05T05:50:47.756Z,15.38
2023-05-05T05:53:15.410Z,15.00
2023-05-05T05:55:43.074Z,17.80
2023-05-05T05:58:12.087Z,14.57
2023-05-05T06:00:39.821Z,18.30
2023-05-05T06:03:07.919Z,18.75
2023-05-05T06:05:35.748Z,16.73
2023-05-05T06:08:03.383Z,13.93
2023-05-05T06:10:31.276Z,18.87
2023-05-05T06:12:59.089Z,17.52
2023-05-05T06:15:28.247Z,19.85
2023-05-05T06:17:55.986Z,16.23
2023-05-05T06:20:23.734Z,17.50
2023-05-05T06:22:51.530Z,18.95
2023-05-05T06:25:19.154Z,22.40
2023-05-05T06:27:47.148Z,17.93
2023-05-05T06:30:15.613Z,20.30
2023-05-05T06:32:44.662Z,19.05
2023-05-05T06:35:12.346Z,20.17
2023-05-05T06:37:40.065Z,18.48
2023-05-05T06:40:10.367Z,20.23
2023-05-05T06:42:38.394Z,18.67
2023-05-05T06:45:06.919Z,21.15
2023-05-05T06:47:34.752Z,18.50
2023-05-05T06:50:03.885Z,18.52
2023-05-05T06:52:31.628Z,17.47
2023-05-05T06:54:59.374Z,19.13
2023-05-05T06:57:27.005Z,19.85
2023-05-05T06:59:54.915Z,15.32
2023-05-05T07:02:24.020Z,15.55
2023-05-05T07:04:55.409Z,18.70
2023-05-05T07:07:24.562Z,13.67
2023-05-05T07:09:52.207Z,15.13
2023-05-05T07:12:20.038Z,14.63
2023-05-05T07:14:47.871Z,15.27
2023-05-05T07:17:16.033Z,15.98
2023-05-05T07:19:44.175Z,17.88
2023-05-05T07:22:11.860Z,16.08
2023-05-05T07:24:41.175Z,17.90
2023-05-05T07:27:09.006Z,14.03
2023-05-05T07:29:36.732Z,14.07
2023-05-05T07:32:04.629Z,15.45
2023-05-05T07:34:34.216Z,13.60
2023-05-05T07:37:01.933Z,15.03
2023-05-05T07:39:29.550Z,14.50
2023-05-05T07:41:58.660Z,11.50
2023-05-05T07:44:26.671Z,14.57
2023-05-05T07:46:54.489Z,12.95
2023-05-05T07:49:22.376Z,11.75
2023-05-05T07:51:50.274Z,12.85
2023-05-05T07:54:18.346Z,14.23
2023-05-05T07:56:46.234Z,10.63
2023-05-05T07:59:15.469Z,11.82
2023-05-05T08:01:43.479Z,10.13
2023-05-05T08:04:11.245Z,13.52
2023-05-05T08:06:39.012Z,9.68
2023-05-05T08:09:06.684Z,10.52
2023-05-05T08:11:34.524Z,10.30
2023-05-05T08:14:02.185Z,11.43
2023-05-05T08:16:31.397Z,9.80
2023-05-05T08:18:59.177Z,11.63
2023-05-05T08:21:27.699Z,7.55
2023-05-05T08:23:55.405Z,6.97
2023-05-05T08:26:23.563Z,9.57
2023-05-05T08:28:55.092Z,10.23
2023-05-05T08:31:22.952Z,11.07
2023-05-05T08:33:51.906Z,7.13
2023-05-05T08:36:19.535Z,7.40
2023-05-05T08:38:47.552Z,7.05
2023-05-05T08:41:18.535Z,8.02
2023-05-05T08:43:47.287Z,7.28
2023-05-05T08:46:15.129Z,8.60
2023-05-05T08:48:45.882Z,7.72
2023-05-05T08:51:19.480Z,7.57
2023-05-05T08:53:53.416Z,7.60
2023-05-05T08:56:22.338Z,7.28
2023-05-05T08:58:51.886Z,9.43
2023-05-05T09:01:19.643Z,10.10
2023-05-05T09:03:47.383Z,6.75
2023-05-05T09:06:16.761Z,5.95
2023-05-05T09:08:44.484Z,7.68
2023-05-05T09:11:12.227Z,7.47
2023-05-05T09:13:40.055Z,6.18
2023-05-05T09:16:08.357Z,7.30
2023-05-05T09:18:38.241Z,9.40
2023-05-05T09:21:22.917Z,8.73
2023-05-05T09:24:10.476Z,4.63
2023-05-05T09:26:41.316Z,7.15
2023-05-05T09:29:09.046Z,8.82
2023-05-05T09:31:37.970Z,8.15
2023-05-05T09:34:15.181Z,9.32
2023-05-05T09:36:47.580Z,9.13
2023-05-05T09:39:17.765Z,9.68
2023-05-05T09:41:45.531Z,7.75
2023-05-05T09:44:15.997Z,8.57
2023-05-05T09:46:51.872Z,6.45
2023-05-05T09:49:23.406Z,8.80
2023-05-05T09:51:52.896Z,8.27
2023-05-05T09:54:24.561Z,6.10
2023-05-05T09:56:52.479Z,6.57
2023-05-05T09:59:22.983Z,5.63
2023-05-05T10:06:13.386Z,5.20
2023-05-05T10:09:04.508Z,6.07
2023-05-05T10:11:48.779Z,4.60
2023-05-05T10:14:21.281Z,5.60
2023-05-05T10:19:49.095Z,5.03
2023-05-05T10:24:52.162Z,3.65
2023-05-05T10:27:21.534Z,2.97
2023-05-05T10:29:56.126Z,5.00
2023-05-05T10:32:53.972Z,5.50
2023-05-05T10:35:18.272Z,2.80
2023-05-05T10:37:46.477Z,5.27
2023-05-05T10:40:16.579Z,5.97
2023-05-05T10:42:44.699Z,6.03
2023-05-05T10:45:12.434Z,5.97
2023-05-05T10:47:40.976Z,5.25
2023-05-05T10:52:47.946Z,7.10
2023-05-05T10:55:19.344Z,7.43
2023-05-05T10:57:47.465Z,7.73
2023-05-05T11:00:48.754Z,6.70
2023-05-05T11:03:24.231Z,11.00
2023-05-05T11:06:12.532Z,8.40
2023-05-05T11:08:42.055Z,8.95
2023-05-05T11:11:13.053Z,10.93
2023-05-05T11:13:41.566Z,6.47
2023-05-05T11:16:47.908Z,6.78
2023-05-05T11:19:48.227Z,9.37
2023-05-05T11:22:16.700Z,7.17
2023-05-05T11:24:44.821Z,6.43
2023-05-05T11:27:13.853Z,6.80
2023-05-05T11:30:07.195Z,8.43
2023-05-05T11:32:35.899Z,9.70
2023-05-05T11:35:03.921Z,11.43
2023-05-05T11:37:31.565Z,16.13
2023-05-05T11:40:08.670Z,9.30
2023-05-05T11:42:37.970Z,11.00
2023-05-05T11:45:21.438Z,12.70
2023-05-05T11:47:49.359Z,11.90
2023-05-05T11:50:19.903Z,11.27
2023-05-05T11:52:48.712Z,15.13
2023-05-05T11:55:22.130Z,10.37
2023-05-05T11:57:51.534Z,12.63
2023-05-05T12:00:19.981Z,11.60
2023-05-05T12:02:47.867Z,17.35
2023-05-05T12:05:21.145Z,12.30
2023-05-05T12:07:49.108Z,11.97
2023-05-05T12:10:23.737Z,12.20
2023-05-05T12:12:55.205Z,11.67
2023-05-05T12:15:30.772Z,12.47
2023-05-05T12:18:00.105Z,11.87
2023-05-05T12:20:35.050Z,11.17
2023-05-05T12:23:04.391Z,8.33
2023-05-05T12:25:40.252Z,13.53
2023-05-05T12:28:10.114Z,8.80
2023-05-05T12:30:38.032Z,13.43
2023-05-05T12:33:06.900Z,12.48
2023-05-05T12:35:35.273Z,15.83
2023-05-05T12:38:03.142Z,14.82
2023-05-05T12:40:47.908Z,17.02
2023-05-05T12:43:30.366Z,11.40
2023-05-05T12:46:08.594Z,12.10
2023-05-05T12:48:37.919Z,11.60
2023-05-05T12:51:17.248Z,11.03
2023-05-05T12:53:45.587Z,11.83
2023-05-05T12:56:34.724Z,8.93
2023-05-05T12:59:05.450Z,11.37
2023-05-05T13:01:33.479Z,7.77
2023-05-05T13:04:09.715Z,9.15
2023-05-05T13:06:37.918Z,10.40
2023-05-05T13:09:05.821Z,9.65
2023-05-05T13:11:37.123Z,11.63
2023-05-05T13:14:07.776Z,10.87
2023-05-05T13:16:35.968Z,13.83
2023-05-05T13:19:03.712Z,10.00
2023-05-05T13:21:31.537Z,14.63
2023-05-05T13:24:16.238Z,14.90
2023-05-05T13:26:47.025Z,13.57
2023-05-05T13:29:16.419Z,14.02
2023-05-05T13:31:44.294Z,10.83
2023-05-05T13:34:12.111Z,9.60
2023-05-05T13:36:39.749Z,12.10
2023-05-05T13:39:09.282Z,10.10
2023-05-05T13:41:37.062Z,13.07
2023-05-05T13:44:04.933Z,13.30
2023-05-05T13:46:34.028Z,11.70
2023-05-05T13:49:01.715Z,7.87
2023-05-05T13:51:29.484Z,9.50
2023-05-05T13:53:57.156Z,12.18
2023-05-05T13:56:26.329Z,13.43
2023-05-05T13:58:54.365Z,11.77
2023-05-05T14:01:22.229Z,16.13
2023-05-05T14:03:51.358Z,12.45
2023-05-05T14:06:19.282Z,9.80
2023-05-05T14:08:47.168Z,7.97
2023-05-05T14:11:17.073Z,10.05
2023-05-05T14:13:46.436Z,10.07
2023-05-05T14:16:14.829Z,8.27
2023-05-05T14:18:42.526Z,8.25
2023-05-05T14:21:12.266Z,4.83
2023-05-05T14:23:39.997Z,6.77
2023-05-05T14:26:08.929Z,6.57
2023-05-05T14:28:36.730Z,5.13
2023-05-05T14:31:04.515Z,7.60
2023-05-05T14:33:32.191Z,6.07
2023-05-05T14:35:59.943Z,9.43
2023-05-05T14:38:29.033Z,5.70
2023-05-05T14:40:56.875Z,4.33
2023-05-05T14:43:24.486Z,6.75
2023-05-05T14:45:52.698Z,4.03
2023-05-05T14:48:22.262Z,4.78
2023-05-05T14:50:50.141Z,2.50
2023-05-05T14:53:18.918Z,5.32
2023-05-05T14:55:47.936Z,2.40
2023-05-05T14:58:15.591Z,2.37
2023-05-05T15:00:43.337Z,2.15
2023-05-05T15:03:11.127Z,4.22
2023-05-05T15:05:38.835Z,1.50
2023-05-05T15:08:07.042Z,3.33
2023-05-05T15:10:34.659Z,3.30
2023-05-05T15:13:03.776Z,2.53
2023-05-05T15:15:31.516Z,2.90
2023-05-05T15:17:59.262Z,2.92
2023-05-05T15:20:27.108Z,1.55
2023-05-05T15:22:55.091Z,1.45
2023-05-05T15:25:22.970Z,1.67
2023-05-05T15:27:50.949Z,2.92
2023-05-05T15:30:20.033Z,2.92
2023-05-05T15:32:48.016Z,1.77
2023-05-05T15:35:15.761Z,3.28
2023-05-05T15:37:43.505Z,1.57
2023-05-05T15:40:12.148Z,4.57
2023-05-05T15:45:11.955Z,3.38
2023-05-05T15:47:41.067Z,2.03
2023-05-05T15:50:09.562Z,3.00
2023-05-05T15:52:37.262Z,3.78
2023-05-05T15:55:05.637Z,4.65
2023-05-05T15:57:34.387Z,5.30
2023-05-05T16:00:02.184Z,2.73
2023-05-05T16:02:30.011Z,3.13
2023-05-05T16:04:59.112Z,3.53
2023-05-05T16:07:26.968Z,2.73
2023-05-05T16:09:54.575Z,3.00
2023-05-05T16:12:22.470Z,3.22
2023-05-05T16:14:50.197Z,2.78
2023-05-05T16:17:18.168Z,1.98
2023-05-05T16:19:46.215Z,3.42
2023-05-05T16:22:15.429Z,3.03
2023-05-05T16:24:44.277Z,3.57
2023-05-05T16:27:12.087Z,6.83
2023-05-05T16:29:39.828Z,4.35
2023-05-05T16:32:07.578Z,3.10
2023-05-05T16:34:35.337Z,3.15
2023-05-05T16:37:03.400Z,4.13
2023-05-05T16:39:32.945Z,4.32
2023-05-05T16:42:00.730Z,3.90
2023-05-05T16:44:28.387Z,4.90
2023-05-05T16:46:56.076Z,4.07
2023-05-05T16:49:24.328Z,3.05
2023-05-05T16:51:52.469Z,4.85
2023-05-05T16:54:20.181Z,3.70
2023-05-05T16:56:49.305Z,3.70
2023-05-05T16:59:19.063Z,5.00
2023-05-05T17:01:46.932Z,4.17
2023-05-05T17:04:14.840Z,4.95
2023-05-05T17:06:42.599Z,5.70
2023-05-05T17:09:10.302Z,5.70
2023-05-05T17:11:38.091Z,4.95
2023-05-05T17:14:07.107Z,4.22
2023-05-05T17:16:34.945Z,7.90
2023-05-05T17:19:02.622Z,4.75
2023-05-05T17:21:30.336Z,5.88
2023-05-05T17:23:58.034Z,6.05
2023-05-05T17:26:25.758Z,5.55
2023-05-05T17:28:53.465Z,6.95
2023-05-05T17:31:22.548Z,3.45
2023-05-05T17:33:50.182Z,5.10
2023-05-05T17:36:17.868Z,5.30
2023-05-05T17:38:45.487Z,5.50
2023-05-05T17:41:13.198Z,6.70
2023-05-05T17:43:41.008Z,6.22
2023-05-05T17:46:08.679Z,6.45
2023-05-05T17:48:37.871Z,8.23
2023-05-05T17:51:05.715Z,5.60
2023-05-05T17:53:33.437Z,5.20
2023-05-05T17:56:01.188Z,4.85
2023-05-05T17:58:28.934Z,5.25
2023-05-05T18:00:56.675Z,4.63
2023-05-05T18:03:24.472Z,5.10
2023-05-05T18:05:53.717Z,6.05
2023-05-05T18:08:21.574Z,4.07
2023-05-05T18:10:49.353Z,5.95
2023-05-05T18:13:17.001Z,4.35
2023-05-05T18:15:44.746Z,5.33
2023-05-05T18:18:12.513Z,3.95
2023-05-05T18:20:41.018Z,6.85
2023-05-05T18:23:11.121Z,6.47
2023-05-05T18:25:38.849Z,7.00
2023-05-05T18:28:06.524Z,5.93
2023-05-05T18:30:35.688Z,5.05
2023-05-05T18:33:03.489Z,5.13
2023-05-05T18:35:31.724Z,5.80
2023-05-05T18:37:59.543Z,4.30
2023-05-05T18:40:28.627Z,4.97
2023-05-05T18:42:56.708Z,4.63
2023-05-05T18:45:24.530Z,4.07
2023-05-05T18:47:52.453Z,6.65
2023-05-05T18:50:20.212Z,4.32
2023-05-05T18:52:47.857Z,6.63
2023-05-05T18:55:15.721Z,7.40
2023-05-05T18:57:44.808Z,5.63
2023-05-05T19:00:13.411Z,7.30
2023-05-05T19:05:09.952Z,4.07
2023-05-05T19:07:37.878Z,5.37
2023-05-05T19:10:06.320Z,3.50
2023-05-05T19:12:34.071Z,3.45
2023-05-05T19:15:03.476Z,3.85
2023-05-05T19:17:31.182Z,4.37
2023-05-05T19:19:58.892Z,3.30
2023-05-05T19:22:26.710Z,5.05
2023-05-05T19:24:54.442Z,5.95
2023-05-05T19:27:22.179Z,4.13
2023-05-05T19:29:52.348Z,3.45
2023-05-05T19:32:22.268Z,7.10
2023-05-05T19:34:50.615Z,3.50
2023-05-05T19:37:18.316Z,4.65
2023-05-05T19:39:46.024Z,5.37
2023-05-05T19:42:13.699Z,4.57
2023-05-05T19:44:41.330Z,4.73
2023-05-05T19:47:10.868Z,7.70
2023-05-05T19:49:40.291Z,3.50
2023-05-05T19:52:08.021Z,5.43
2023-05-05T19:54:36.154Z,6.28
2023-05-05T19:57:03.864Z,5.68
2023-05-05T19:59:31.745Z,6.27
2023-05-05T20:01:59.485Z,5.22
2023-05-05T20:04:27.272Z,3.53
2023-05-05T20:06:57.234Z,5.13
2023-05-05T20:09:24.926Z,3.87
2023-05-05T20:11:52.574Z,4.00
2023-05-05T20:14:20.176Z,4.77
2023-05-05T20:16:47.955Z,6.43
2023-05-05T20:19:15.653Z,5.75
2023-05-05T20:21:43.264Z,5.50
2023-05-05T20:24:12.475Z,6.43
2023-05-05T20:26:40.081Z,8.23
2023-05-05T20:29:07.685Z,5.80
2023-05-05T20:31:35.897Z,5.97
2023-05-05T20:34:03.752Z,5.57
2023-05-05T20:36:31.416Z,5.38
2023-05-05T20:38:59.088Z,5.70
2023-05-05T20:41:28.176Z,4.43
2023-05-05T20:43:55.788Z,5.23
2023-05-05T20:46:23.645Z,5.83
2023-05-05T20:48:51.356Z,5.47
2023-05-05T20:51:19.135Z,6.83
2023-05-05T20:53:46.772Z,6.17
2023-05-05T20:56:14.455Z,6.83
2023-05-05T20:58:43.499Z,6.43
2023-05-05T21:01:11.299Z,7.13
2023-05-05T21:03:38.977Z,6.10
2023-05-05T21:06:06.909Z,9.80
2023-05-05T21:08:34.886Z,6.47
2023-05-05T21:11:02.651Z,6.40
2023-05-05T21:13:30.567Z,6.20
2023-05-05T21:15:59.627Z,8.07
2023-05-05T21:18:27.706Z,6.50
2023-05-05T21:20:55.596Z,6.25
2023-05-05T21:23:23.357Z,7.97
2023-05-05T21:25:51.045Z,7.25
2023-05-05T21:28:18.729Z,8.00
2023-05-05T21:30:54.854Z,7.43
2023-05-05T21:33:34.005Z,7.57
2023-05-05T21:36:01.767Z,8.37
2023-05-05T21:38:29.514Z,6.82
2023-05-05T21:40:57.969Z,8.18
2023-05-05T21:43:28.561Z,6.80
2023-05-05T21:46:00.017Z,5.03
2023-05-05T21:48:28.080Z,7.37
2023-05-05T21:50:57.104Z,6.25
2023-05-05T21:53:24.900Z,6.30
2023-05-05T21:55:52.630Z,6.65
2023-05-05T21:58:20.380Z,7.10
2023-05-05T22:00:50.082Z,5.80
2023-05-05T22:03:18.016Z,6.93
2023-05-05T22:05:46.163Z,5.70
2023-05-05T22:08:15.224Z,7.93
2023-05-05T22:10:42.990Z,7.97
2023-05-05T22:13:11.359Z,9.75
2023-05-05T22:15:46.743Z,7.47
2023-05-05T22:18:15.141Z,7.00
2023-05-05T22:20:43.215Z,6.97
2023-05-05T22:23:11.181Z,6.43
2023-05-05T22:25:40.302Z,8.50
2023-05-05T22:28:07.991Z,7.00
2023-05-05T22:30:35.682Z,6.53
2023-05-05T22:33:03.638Z,7.35
2023-05-05T22:35:32.107Z,10.20
2023-05-05T22:38:01.430Z,9.13
2023-05-05T22:40:29.261Z,9.13
2023-05-05T22:42:58.329Z,8.38
2023-05-05T22:45:26.263Z,9.57
2023-05-05T22:47:55.122Z,10.18
2023-05-05T22:50:22.832Z,7.80
2023-05-05T22:52:50.568Z,8.63
2023-05-05T22:55:18.207Z,9.90
2023-05-05T22:57:46.029Z,8.70
2023-05-05T23:00:15.440Z,9.98
2023-05-05T23:02:43.182Z,7.97
2023-05-05T23:05:11.484Z,9.20
2023-05-05T23:07:39.427Z,15.20
2023-05-05T23:10:08.034Z,14.50
2023-05-05T23:12:35.783Z,15.80
2023-05-05T23:15:03.562Z,14.37
2023-05-05T23:17:32.702Z,10.52
2023-05-05T23:20:00.438Z,13.13
2023-05-05T23:22:28.136Z,9.93
2023-05-05T23:24:55.796Z,10.93
2023-05-05T23:27:23.954Z,8.43
2023-05-05T23:29:51.665Z,11.13
2023-05-05T23:32:19.404Z,12.63
2023-05-05T23:34:48.588Z,10.03
2023-05-05T23:37:16.285Z,10.93
2023-05-05T23:39:43.964Z,12.13
2023-05-05T23:42:11.695Z,10.03
2023-05-05T23:44:39.321Z,11.68
2023-05-05T23:47:07.141Z,11.07
2023-05-05T23:49:34.753Z,13.93
2023-05-05T23:52:03.813Z,14.37
2023-05-05T23:54:31.451Z,10.57
2023-05-05T23:57:00.231Z,14.27
2023-05-05T23:59:27.923Z,11.00
